Погода Итажубана 2 недели

Минас-Жерайс, Бразилия

19 июня-02 июля
  • 19июня
    Сегодня
    +8°
    +25°
    Ясно и безоблачно
    ВремяПогодаТемператураВлажностьДавлениеВетер, м/сВероятность осадков
    00:00Ясно и безоблачно+10°C83 %687 мм1.4 м/с5 %
    03:00Ясно и безоблачно+10°C79 %687 мм1.3 м/с5 %
    06:00Ясно и безоблачно+9°C75 %687 мм1.2 м/с5 %
    09:00Ясно и безоблачно+15°C52 %690 мм0.3 м/с5 %
    12:00Ясно и безоблачно+22°C41 %690 мм1.9 м/с5 %
    15:00Ясно и безоблачно+24°C40 %689 мм1.4 м/с5 %
    18:00Ясно и безоблачно+17°C60 %688 мм0.9 м/с5 %
    21:00Ясно и безоблачно+14°C74 %689 мм1.3 м/с5 %
  • 20июня
    Четверг
    +9°
    +25°
    Ясно и безоблачно
    ВремяПогодаТемператураВлажностьДавлениеВетер, м/сВероятность осадков
    00:00Ясно и безоблачно+11°C77 %688 мм1.2 м/с5 %
    03:00Ясно и безоблачно+11°C74 %687 мм1.1 м/с5 %
    06:00Ясно и безоблачно+9°C70 %687 мм1.0 м/с5 %
    09:00Ясно и безоблачно+15°C49 %690 мм0.1 м/с5 %
    12:00Ясно и безоблачно+23°C32 %690 мм1.2 м/с5 %
    15:00Ясно и безоблачно+25°C31 %689 мм0.9 м/с5 %
    18:00Ясно и безоблачно+20°C49 %689 мм0.2 м/с5 %
    21:00Ясно и безоблачно+13°C63 %688 мм1.2 м/с5 %
  • 21июня
    Пятница
    +10°
    +26°
    Практически безоблачно
    ВремяПогодаТемператураВлажностьДавлениеВетер, м/сВероятность осадков
    00:00Ясно и безоблачно+10°C66 %688 мм1.3 м/с5 %
    03:00Ясно и безоблачно+10°C71 %687 мм1.2 м/с5 %
    06:00Ясно и безоблачно+9°C74 %687 мм1.2 м/с5 %
    09:00Ясно и безоблачно+16°C57 %689 мм0.1 м/с5 %
    12:00Ясно и безоблачно+24°C43 %690 мм1.7 м/с5 %
    15:00Практически безоблачно+26°C39 %689 мм1.8 м/с5 %
    18:00Небольшая облачность+19°C62 %688 мм1.4 м/с5 %
    21:00Ясно и безоблачно+14°C75 %688 мм1.6 м/с5 %
  • 22июня
    Суббота
    +12°
    +25°
    Облачно с прояснениями
    ВремяПогодаТемператураВлажностьДавлениеВетер, м/сВероятность осадков
    00:00Облачно с прояснениями+13°C75 %688 мм1.0 м/с5 %
    03:00Небольшая облачность+13°C83 %687 мм0.5 м/с5 %
    06:00Ясно и безоблачно+11°C89 %687 мм0.8 м/с5 %
    09:00Ясно и безоблачно+15°C72 %689 мм0.2 м/с5 %
    12:00Облачно с прояснениями+23°C49 %690 мм2.9 м/с6 %
    15:00Облачно с прояснениями+24°C44 %688 мм2.5 м/с5 %
    18:00Облачно с прояснениями+20°C60 %688 мм0.4 м/с5 %
    21:00Облачно с прояснениями+16°C72 %687 мм1.5 м/с5 %
  • 23июня
    Воскресенье
    +12°
    +26°
    Ясно и безоблачно
    ВремяПогодаТемператураВлажностьДавлениеВетер, м/сВероятность осадков
    00:00Облачно с прояснениями+13°C78 %687 мм1.3 м/с5 %
    03:00Ясно и безоблачно+13°C77 %686 мм0.9 м/с5 %
    06:00Ясно и безоблачно+12°C75 %686 мм0.8 м/с5 %
    09:00Ясно и безоблачно+16°C58 %689 мм0.3 м/с5 %
    12:00Ясно и безоблачно+23°C45 %689 мм2.5 м/с4 %
    15:00Ясно и безоблачно+26°C41 %688 мм2.4 м/с5 %
    18:00Ясно и безоблачно+20°C62 %687 мм0.9 м/с5 %
    21:00Ясно и безоблачно+16°C72 %687 мм1.3 м/с5 %
Мы используем cookies
Соглашаюсь